Time;durP1;ratioP1;P1;durP2;ratioP2;P2;SDS_P1;SDS_P2;PMS_P1;PMS_P2;Temp;Humidity;BMP_temperature;BMP_pressure;BME280_temperature;BME280_humidity;BME280_pressure;Samples;Min_cycle;Max_cycle;Signal;HPM_P1;HPM_P2
2023/09/21 00:00:16;;;;;;;6.22;5.72;;;;;;;;;;10190586;28;20089;-69
2023/09/21 00:05:13;;;;;;;6.25;5.55;;;;;;;;;;10196067;28;20128;-70
2023/09/21 00:10:09;;;;;;;6.00;4.88;;;;;;;;;;10193465;28;20464;-70
2023/09/21 00:15:06;;;;;;;6.15;4.80;;;;;;;;;;10191858;28;20468;-70
2023/09/21 00:20:23;;;;;;;6.38;5.00;;;;;;;;;;10184977;28;20054;-70
2023/09/21 00:25:22;;;;;;;5.80;5.28;;;;;;;;;;10184085;28;20053;-70
2023/09/21 00:30:18;;;;;;;7.10;5.45;;;;;;;;;;10185301;28;20053;-69
2023/09/21 00:35:16;;;;;;;5.78;5.20;;;;;;;;;;10193881;28;20057;-70
2023/09/21 00:40:16;;;;;;;6.75;5.20;;;;;;;;;;10178824;28;20425;-70
2023/09/21 00:45:14;;;;;;;6.88;5.57;;;;;;;;;;10187161;28;20141;-70
2023/09/21 00:50:11;;;;;;;5.90;5.40;;;;;;;;;;10185670;28;20081;-70
2023/09/21 00:55:11;;;;;;;7.90;5.68;;;;;;;;;;10188287;28;20768;-70
2023/09/21 01:00:13;;;;;;;6.43;5.25;;;;;;;;;;10190341;28;20061;-70
2023/09/21 01:05:12;;;;;;;9.07;5.45;;;;;;;;;;10183960;28;20057;-70
2023/09/21 01:10:13;;;;;;;7.20;5.55;;;;;;;;;;10197423;28;20412;-69
2023/09/21 01:15:09;;;;;;;8.48;5.70;;;;;;;;;;10187556;28;20537;-69
2023/09/21 01:20:22;;;;;;;6.35;5.75;;;;;;;;;;10188535;28;20061;-70
2023/09/21 01:25:19;;;;;;;7.15;4.95;;;;;;;;;;10178237;28;20097;-69
2023/09/21 01:30:15;;;;;;;7.00;5.25;;;;;;;;;;10183802;28;20160;-69
2023/09/21 01:35:14;;;;;;;6.40;5.50;;;;;;;;;;10187713;28;20046;-69
2023/09/21 01:40:15;;;;;;;6.07;5.50;;;;;;;;;;10186171;28;20089;-69
2023/09/21 01:45:14;;;;;;;7.47;5.40;;;;;;;;;;10193455;28;20054;-69
2023/09/21 01:50:12;;;;;;;5.90;5.18;;;;;;;;;;10191724;28;20081;-69
2023/09/21 01:55:11;;;;;;;6.72;5.55;;;;;;;;;;10190989;28;20046;-70
2023/09/21 02:00:29;;;;;;;6.72;6.13;;;;;;;;;;10196819;28;20108;-70
2023/09/21 02:05:28;;;;;;;7.00;5.55;;;;;;;;;;10190150;28;20081;-69
2023/09/21 02:10:24;;;;;;;7.90;5.72;;;;;;;;;;10195046;28;20096;-70
2023/09/21 02:15:21;;;;;;;6.65;5.85;;;;;;;;;;10194575;28;20054;-70
2023/09/21 02:20:20;;;;;;;6.40;5.80;;;;;;;;;;10177092;28;20050;-69
2023/09/21 02:25:16;;;;;;;6.57;5.85;;;;;;;;;;10197515;28;20536;-69
2023/09/21 02:30:14;;;;;;;6.70;5.65;;;;;;;;;;10195938;28;20426;-70
2023/09/21 02:35:15;;;;;;;6.15;5.55;;;;;;;;;;10173346;28;20050;-70
2023/09/21 02:40:15;;;;;;;9.73;6.15;;;;;;;;;;10190180;28;20717;-68
2023/09/21 02:45:12;;;;;;;6.00;5.50;;;;;;;;;;10179729;28;20061;-68
2023/09/21 02:50:14;;;;;;;7.47;6.03;;;;;;;;;;10184802;28;20054;-68
2023/09/21 02:55:11;;;;;;;7.38;5.50;;;;;;;;;;10193434;28;20434;-70
2023/09/21 03:00:13;;;;;;;6.53;5.90;;;;;;;;;;10186936;28;20050;-70
2023/09/21 03:05:11;;;;;;;6.68;6.03;;;;;;;;;;10197807;28;20057;-69
2023/09/21 03:10:09;;;;;;;8.88;6.15;;;;;;;;;;10187495;28;20470;-70
2023/09/21 03:15:16;;;;;;;7.03;6.43;;;;;;;;;;10189924;28;20054;-70
2023/09/21 03:20:32;;;;;;;7.35;5.88;;;;;;;;;;10191990;28;20058;-70
2023/09/21 03:25:32;;;;;;;8.10;6.13;;;;;;;;;;10192537;28;20054;-70
2023/09/21 03:30:28;;;;;;;9.82;6.32;;;;;;;;;;10188858;28;20125;-70
2023/09/21 03:35:26;;;;;;;7.55;6.60;;;;;;;;;;10191416;28;20056;-69
2023/09/21 03:40:25;;;;;;;7.15;6.25;;;;;;;;;;10190866;28;20046;-69
2023/09/21 03:45:25;;;;;;;7.45;6.75;;;;;;;;;;10185321;28;20054;-69
2023/09/21 03:50:27;;;;;;;6.35;5.75;;;;;;;;;;10184231;28;20402;-69
2023/09/21 03:55:24;;;;;;;6.75;6.20;;;;;;;;;;10188797;28;20089;-69
2023/09/21 04:00:30;;;;;;;7.25;6.60;;;;;;;;;;10165590;28;20065;-70
2023/09/21 04:05:26;;;;;;;6.88;6.28;;;;;;;;;;10183502;28;20042;-68
2023/09/21 04:10:23;;;;;;;7.80;7.00;;;;;;;;;;10168449;28;20058;-68
2023/09/21 04:15:19;;;;;;;7.90;7.07;;;;;;;;;;10193108;28;20478;-68
2023/09/21 04:20:18;;;;;;;7.47;6.88;;;;;;;;;;10195185;28;20054;-71
2023/09/21 04:25:16;;;;;;;7.75;7.05;;;;;;;;;;10197076;28;20559;-70
2023/09/21 04:30:16;;;;;;;8.73;6.40;;;;;;;;;;10190840;28;20502;-69
2023/09/21 04:35:14;;;;;;;8.50;7.30;;;;;;;;;;10183044;28;20062;-74
2023/09/21 04:40:12;;;;;;;7.88;7.18;;;;;;;;;;10194817;28;20416;-74
2023/09/21 04:45:09;;;;;;;8.35;7.55;;;;;;;;;;10180591;28;20061;-73
2023/09/21 04:50:06;;;;;;;7.15;6.45;;;;;;;;;;10183503;28;20081;-73
2023/09/21 04:55:08;;;;;;;7.55;6.85;;;;;;;;;;10175056;28;20190;-73
2023/09/21 05:00:12;;;;;;;7.57;6.70;;;;;;;;;;10172811;28;20149;-74
2023/09/21 05:05:08;;;;;;;7.47;6.88;;;;;;;;;;10177241;28;20069;-73
2023/09/21 05:10:06;;;;;;;7.85;7.03;;;;;;;;;;10178392;28;20046;-74
2023/09/21 05:15:06;;;;;;;7.93;7.22;;;;;;;;;;10171571;28;20116;-77
2023/09/21 05:20:05;;;;;;;8.32;7.53;;;;;;;;;;10156723;28;20590;-76
2023/09/21 05:30:30;;;;;;;8.57;7.88;;;;;;;;;;10436226;23;20085;-75
2023/09/21 05:35:30;;;;;;;8.07;7.43;;;;;;;;;;10133590;28;20142;-75
2023/09/21 05:47:00;;;;;;;8.80;8.05;;;;;;;;;;10118745;28;20070;-76
2023/09/21 05:52:48;;;;;;;7.85;7.18;;;;;;;;;;10143013;28;20137;-75
2023/09/21 05:57:52;;;;;;;8.07;7.40;;;;;;;;;;10110960;28;20058;-76
2023/09/21 06:38:55;;;;;;;7.13;6.45;;;;;;;;;;10109050;28;20051;-75
2023/09/21 06:56:21;;;;;;;8.25;7.00;;;;;;;;;;10138250;26;20054;-75
2023/09/21 07:13:23;;;;;;;10.20;6.75;;;;;;;;;;9919316;29;20084;-75
2023/09/21 07:18:44;;;;;;;8.93;6.82;;;;;;;;;;9911111;29;20082;-75
2023/09/21 07:23:41;;;;;;;7.32;6.60;;;;;;;;;;9959563;29;20087;-75
2023/09/21 07:28:38;;;;;;;7.25;6.45;;;;;;;;;;9980191;29;20055;-75
2023/09/21 07:33:34;;;;;;;7.63;6.93;;;;;;;;;;9987285;29;20071;-75
2023/09/21 07:38:31;;;;;;;8.15;6.45;;;;;;;;;;9970751;29;20130;-75
2023/09/21 07:43:28;;;;;;;7.22;6.55;;;;;;;;;;9987187;29;20066;-73
2023/09/21 07:48:26;;;;;;;9.35;6.80;;;;;;;;;;10058050;28;20110;-75
2023/09/21 07:53:23;;;;;;;7.32;6.72;;;;;;;;;;10105468;28;20057;-75
2023/09/21 07:58:19;;;;;;;8.38;6.68;;;;;;;;;;10114515;28;20050;-75
2023/09/21 09:02:35;;;;;;;8.23;7.53;;;;;;;;;;9968076;28;20057;-75
2023/09/21 09:19:31;;;;;;;8.95;8.15;;;;;;;;;;10016830;29;20071;-74
2023/09/21 09:35:55;;;;;;;8.20;7.40;;;;;;;;;;10140590;28;20403;-74
2023/09/21 09:40:52;;;;;;;8.35;6.68;;;;;;;;;;10145449;28;20569;-74
2023/09/21 09:45:49;;;;;;;12.55;7.40;;;;;;;;;;10136944;28;20051;-74
2023/09/21 10:38:16;;;;;;;8.30;7.55;;;;;;;;;;9885600;29;20025;-75
2023/09/21 11:07:58;;;;;;;;;;;;;;;;;;9927790;29;20041;-75
2023/09/21 11:48:22;;;;;;;9.48;6.28;;;;;;;;;;10177665;28;20066;-75
2023/09/21 11:59:15;;;;;;;6.50;5.90;;;;;;;;;;10112479;28;20050;-75
2023/09/21 12:04:12;;;;;;;8.23;6.20;;;;;;;;;;10153844;28;20061;-75
2023/09/21 12:15:47;;;;;;;;;;;;;;;;;;;;;
2023/09/21 12:21:23;;;;;;;7.13;6.53;;;;;;;;;;10128921;28;20057;-75
2023/09/21 12:27:05;;;;;;;7.53;6.82;;;;;;;;;;10156268;28;20413;-75
2023/09/21 13:02:27;;;;;;;;;;;;;;;;;;;;;
2023/09/21 13:08:43;;;;;;;7.40;6.40;;;;;;;;;;9914782;29;20485;-74
2023/09/21 13:20:16;;;;;;;8.30;6.72;;;;;;;;;;9704518;29;20460;-74
2023/09/21 13:26:31;;;;;;;;;;;;;;;;;;;;;
2023/09/21 13:31:52;;;;;;;6.65;6.03;;;;;;;;;;10048738;28;20038;-74
2023/09/21 13:36:59;;;;;;;7.90;6.15;;;;;;;;;;10105176;28;20447;-74
2023/09/21 13:42:29;;;;;;;7.25;6.60;;;;;;;;;;10086275;28;20054;-77
2023/09/21 13:47:27;;;;;;;7.47;6.72;;;;;;;;;;10106823;28;20071;-76
2023/09/21 13:52:39;;;;;;;7.57;6.90;;;;;;;;;;10108294;28;20042;-77
2023/09/21 13:58:21;;;;;;;8.20;6.30;;;;;;;;;;10079665;28;20044;-76
2023/09/21 14:04:06;;;;;;;7.68;6.97;;;;;;;;;;10074245;28;20054;-76
2023/09/21 14:09:33;;;;;;;7.90;7.20;;;;;;;;;;10087056;28;20105;-76
2023/09/21 14:14:53;;;;;;;7.18;6.60;;;;;;;;;;10095285;28;20105;-76
2023/09/21 14:19:58;;;;;;;9.63;7.13;;;;;;;;;;10088674;28;20097;-76
2023/09/21 14:25:16;;;;;;;7.85;7.25;;;;;;;;;;10067217;28;20247;-76
2023/09/21 14:30:15;;;;;;;7.63;6.93;;;;;;;;;;10088355;28;20525;-76
2023/09/21 14:35:31;;;;;;;7.40;6.80;;;;;;;;;;10085966;28;20048;-75
2023/09/21 14:40:45;;;;;;;7.68;7.00;;;;;;;;;;10087944;28;20047;-75
2023/09/21 14:52:01;;;;;;;7.53;6.93;;;;;;;;;;10012442;23;20054;-77
2023/09/21 14:56:59;;;;;;;7.88;7.28;;;;;;;;;;10174929;28;20054;-76
2023/09/21 15:12:57;;;;;;;7.25;6.30;;;;;;;;;;10112873;28;20086;-77
2023/09/21 15:17:54;;;;;;;6.95;6.32;;;;;;;;;;10099386;28;20495;-74
2023/09/21 15:22:50;;;;;;;6.75;6.25;;;;;;;;;;10105541;28;20673;-74
2023/09/21 15:27:47;;;;;;;6.90;6.30;;;;;;;;;;10090258;28;20522;-74
2023/09/21 15:32:44;;;;;;;7.65;6.95;;;;;;;;;;10099372;28;20105;-73
2023/09/21 15:37:40;;;;;;;7.80;7.10;;;;;;;;;;10102417;28;20053;-75
2023/09/21 15:42:37;;;;;;;7.20;6.50;;;;;;;;;;10098172;28;20132;-75
2023/09/21 15:47:35;;;;;;;9.75;7.13;;;;;;;;;;10104583;28;20055;-74
2023/09/21 15:59:19;;;;;;;9.65;6.80;;;;;;;;;;10059410;28;20047;-76
2023/09/21 16:04:19;;;;;;;7.85;6.72;;;;;;;;;;10110029;28;20072;-75
2023/09/21 16:09:15;;;;;;;7.75;6.45;;;;;;;;;;10097319;28;20161;-74
2023/09/21 16:14:12;;;;;;;7.57;6.88;;;;;;;;;;10097910;28;20153;-74
2023/09/21 16:19:08;;;;;;;6.70;6.10;;;;;;;;;;10109436;28;20062;-75
2023/09/21 16:24:05;;;;;;;7.30;6.50;;;;;;;;;;10107003;28;20055;-75
2023/09/21 16:29:03;;;;;;;7.10;6.40;;;;;;;;;;10095620;28;20053;-75
2023/09/21 16:33:59;;;;;;;9.00;6.70;;;;;;;;;;10097784;28;20117;-74
2023/09/21 16:38:56;;;;;;;7.43;6.72;;;;;;;;;;10092558;28;20054;-75
2023/09/21 16:43:52;;;;;;;8.00;6.60;;;;;;;;;;10105043;28;20518;-74
2023/09/21 16:48:49;;;;;;;7.43;6.70;;;;;;;;;;10097686;28;20047;-74
2023/09/21 16:53:45;;;;;;;7.30;6.70;;;;;;;;;;10099680;28;20050;-74
2023/09/21 16:58:42;;;;;;;8.10;7.32;;;;;;;;;;10106210;28;20062;-74
2023/09/21 17:03:38;;;;;;;7.80;7.20;;;;;;;;;;10094622;28;20053;-75
2023/09/21 17:08:35;;;;;;;7.30;6.70;;;;;;;;;;10107680;28;20039;-75
2023/09/21 17:43:04;;;;;;;8.25;7.45;;;;;;;;;;10075126;28;20122;-75
2023/09/21 18:05:59;;;;;;;8.18;7.03;;;;;;;;;;10027534;28;20062;-75
2023/09/21 19:38:07;;;;;;;7.07;6.38;;;;;;;;;;10093278;28;20192;-73
2023/09/21 19:43:04;;;;;;;6.68;6.00;;;;;;;;;;10085780;28;20141;-73
2023/09/21 19:48:00;;;;;;;6.10;5.55;;;;;;;;;;10088265;28;20054;-69
2023/09/21 19:52:57;;;;;;;6.82;6.18;;;;;;;;;;10095113;28;20137;-68
2023/09/21 19:57:53;;;;;;;5.93;5.43;;;;;;;;;;10089727;28;20047;-69
2023/09/21 20:02:50;;;;;;;7.40;5.97;;;;;;;;;;10094099;28;20059;-68
2023/09/21 20:07:46;;;;;;;6.25;5.57;;;;;;;;;;10096675;28;20058;-69
2023/09/21 20:12:44;;;;;;;6.15;5.65;;;;;;;;;;10099304;28;20046;-68
2023/09/21 20:17:40;;;;;;;6.70;5.72;;;;;;;;;;10100950;28;20051;-68
2023/09/21 20:22:37;;;;;;;5.97;5.13;;;;;;;;;;10093368;28;20054;-68
2023/09/21 20:27:33;;;;;;;5.57;5.00;;;;;;;;;;10085962;28;20051;-68
2023/09/21 20:32:31;;;;;;;6.22;5.72;;;;;;;;;;10095116;28;20055;-68
2023/09/21 20:37:27;;;;;;;8.30;7.55;;;;;;;;;;10097359;28;20077;-68
2023/09/21 20:42:23;;;;;;;6.57;5.93;;;;;;;;;;10099307;28;20181;-68
2023/09/21 20:47:20;;;;;;;8.35;6.07;;;;;;;;;;10095285;28;20051;-68
2023/09/21 20:52:16;;;;;;;6.35;5.60;;;;;;;;;;10089895;28;20065;-68
2023/09/21 20:57:12;;;;;;;6.47;5.88;;;;;;;;;;10095567;28;20055;-68
2023/09/21 21:02:11;;;;;;;6.55;6.00;;;;;;;;;;10085791;28;20129;-67
2023/09/21 21:07:09;;;;;;;5.72;5.22;;;;;;;;;;10096441;28;20063;-68
2023/09/21 21:12:05;;;;;;;6.18;5.57;;;;;;;;;;10091824;28;20067;-67
2023/09/21 21:17:02;;;;;;;8.02;6.32;;;;;;;;;;10098823;28;20619;-68
2023/09/21 21:21:58;;;;;;;6.40;5.80;;;;;;;;;;10094372;28;20669;-69
2023/09/21 21:26:55;;;;;;;5.97;5.45;;;;;;;;;;10084525;28;20096;-68
2023/09/21 21:31:51;;;;;;;9.07;6.20;;;;;;;;;;10098342;28;20063;-67
2023/09/21 21:36:47;;;;;;;7.03;6.43;;;;;;;;;;10096355;28;20105;-67
2023/09/21 21:41:44;;;;;;;6.05;5.55;;;;;;;;;;10081797;28;20655;-68
2023/09/21 21:46:40;;;;;;;8.63;6.95;;;;;;;;;;10105813;28;20488;-68
2023/09/21 21:51:36;;;;;;;7.28;6.65;;;;;;;;;;10099077;28;20058;-68
2023/09/21 21:56:33;;;;;;;6.32;5.82;;;;;;;;;;10099218;28;20047;-67
2023/09/21 22:01:29;;;;;;;6.80;6.00;;;;;;;;;;10089296;28;20047;-68
2023/09/21 22:06:26;;;;;;;6.60;6.03;;;;;;;;;;10100930;28;20055;-68
2023/09/21 22:11:22;;;;;;;7.30;6.70;;;;;;;;;;10081367;28;20109;-68
2023/09/21 22:16:19;;;;;;;7.40;6.80;;;;;;;;;;10113107;28;20051;-68
2023/09/21 22:21:15;;;;;;;8.27;7.65;;;;;;;;;;10111279;28;20139;-68
2023/09/21 22:26:12;;;;;;;8.02;7.32;;;;;;;;;;10109280;28;20047;-68
2023/09/21 22:31:10;;;;;;;7.88;7.28;;;;;;;;;;10111220;28;20133;-68
2023/09/21 22:36:06;;;;;;;7.72;7.05;;;;;;;;;;10107178;28;20050;-68
2023/09/21 22:41:03;;;;;;;10.85;7.88;;;;;;;;;;10104690;28;20046;-68
2023/09/21 22:46:00;;;;;;;8.05;7.25;;;;;;;;;;10106063;28;20074;-68
2023/09/21 22:50:56;;;;;;;7.68;7.07;;;;;;;;;;10108952;28;20050;-68
2023/09/21 22:55:57;;;;;;;8.23;6.80;;;;;;;;;;10100791;28;20122;-68
2023/09/21 23:00:56;;;;;;;7.65;7.00;;;;;;;;;;10107228;28;20122;-68
2023/09/21 23:05:54;;;;;;;8.00;7.20;;;;;;;;;;10102184;28;20503;-68
2023/09/21 23:10:51;;;;;;;7.80;7.10;;;;;;;;;;10099596;28;20646;-68
2023/09/21 23:15:47;;;;;;;7.35;6.68;;;;;;;;;;10094844;28;20418;-68
2023/09/21 23:20:43;;;;;;;7.53;6.82;;;;;;;;;;10099279;28;20173;-68
2023/09/21 23:25:43;;;;;;;8.35;7.38;;;;;;;;;;10106590;28;20459;-68
2023/09/21 23:30:40;;;;;;;7.10;6.60;;;;;;;;;;10107971;28;20050;-68
2023/09/21 23:35:40;;;;;;;7.40;6.82;;;;;;;;;;10102221;28;20058;-68
2023/09/21 23:40:36;;;;;;;7.45;6.85;;;;;;;;;;10088273;28;20089;-68
2023/09/21 23:45:33;;;;;;;7.78;7.18;;;;;;;;;;10104743;28;20057;-68
2023/09/21 23:50:30;;;;;;;8.63;7.82;;;;;;;;;;10107984;28;20459;-68
2023/09/21 23:55:27;;;;;;;7.70;7.05;;;;;;;;;;10098544;28;20530;-69
